Time;durP1;ratioP1;P1;durP2;ratioP2;P2;SDS_P1;SDS_P2;PMS_P1;PMS_P2;Temp;Humidity;BMP_temperature;BMP_pressure;BME280_temperature;BME280_humidity;BME280_pressure;Samples;Min_cycle;Max_cycle;Signal;HPM_P1;HPM_P2
2022/09/04 00:01:41;;;;;;;6.78;3.45;;;;;;;;;;5040379;28;20689;-68
2022/09/04 00:04:20;;;;;;;5.80;3.33;;;;;;;;;;5039422;28;20473;-67
2022/09/04 00:06:59;;;;;;;9.02;3.45;;;;;;;;;;5041044;28;20235;-68
2022/09/04 00:09:27;;;;;;;5.45;3.58;;;;;;;;;;5018699;28;20219;-68
2022/09/04 00:12:00;;;;;;;4.95;3.28;;;;;;;;;;5039425;28;20211;-68
2022/09/04 00:14:34;;;;;;;6.07;3.80;;;;;;;;;;5032664;28;20212;-68
2022/09/04 00:17:01;;;;;;;5.40;3.38;;;;;;;;;;5026734;28;20219;-68
2022/09/04 00:19:30;;;;;;;6.20;3.58;;;;;;;;;;5032786;28;20393;-68
2022/09/04 00:21:56;;;;;;;5.93;3.65;;;;;;;;;;5036526;28;20219;-68
2022/09/04 00:24:23;;;;;;;6.05;4.00;;;;;;;;;;5037945;28;20238;-68
2022/09/04 00:26:53;;;;;;;6.10;3.90;;;;;;;;;;5040500;28;20244;-68
2022/09/04 00:29:25;;;;;;;7.30;4.22;;;;;;;;;;5038936;28;20215;-68
2022/09/04 00:31:52;;;;;;;5.28;3.80;;;;;;;;;;5021769;28;20586;-68
2022/09/04 00:34:17;;;;;;;5.50;3.85;;;;;;;;;;5039768;28;20222;-68
2022/09/04 00:36:44;;;;;;;10.05;3.75;;;;;;;;;;5033373;28;20208;-68
2022/09/04 00:39:11;;;;;;;6.00;4.10;;;;;;;;;;5032751;28;20204;-68
2022/09/04 00:41:42;;;;;;;7.20;4.32;;;;;;;;;;5031862;28;20207;-68
2022/09/04 00:44:27;;;;;;;8.02;4.95;;;;;;;;;;5029249;28;20748;-68
2022/09/04 00:46:52;;;;;;;8.70;5.55;;;;;;;;;;5040103;28;20235;-68
2022/09/04 00:49:40;;;;;;;8.73;5.05;;;;;;;;;;5040436;28;20222;-68
2022/09/04 00:52:19;;;;;;;8.07;4.90;;;;;;;;;;5029849;28;20278;-67
2022/09/04 00:54:53;;;;;;;10.00;4.90;;;;;;;;;;5040664;28;20272;-68
2022/09/04 00:57:18;;;;;;;8.13;5.40;;;;;;;;;;5038573;28;20241;-68
2022/09/04 00:59:45;;;;;;;6.90;5.30;;;;;;;;;;5037108;28;20654;-68
2022/09/04 01:02:16;;;;;;;9.38;6.22;;;;;;;;;;5032839;28;20574;-68
2022/09/04 01:04:42;;;;;;;8.07;6.57;;;;;;;;;;5032160;28;20214;-68
2022/09/04 01:07:13;;;;;;;10.38;7.32;;;;;;;;;;5034243;28;20215;-67
2022/09/04 01:09:48;;;;;;;8.60;5.90;;;;;;;;;;5038731;28;20231;-68
2022/09/04 01:12:14;;;;;;;7.97;5.20;;;;;;;;;;5038056;28;20317;-68
2022/09/04 01:14:54;;;;;;;8.77;5.65;;;;;;;;;;5023740;28;20337;-68
2022/09/04 01:17:21;;;;;;;7.00;5.30;;;;;;;;;;5028990;28;20235;-69
2022/09/04 01:19:55;;;;;;;6.65;5.40;;;;;;;;;;5039336;28;20226;-68
2022/09/04 01:22:32;;;;;;;10.07;6.28;;;;;;;;;;5038488;28;20716;-68
2022/09/04 01:25:04;;;;;;;8.50;6.10;;;;;;;;;;5037163;28;20272;-68
2022/09/04 01:27:39;;;;;;;7.68;5.78;;;;;;;;;;5034383;28;20514;-68
2022/09/04 01:30:07;;;;;;;8.98;6.70;;;;;;;;;;5039040;28;20685;-68
2022/09/04 01:32:33;;;;;;;11.00;6.60;;;;;;;;;;5042661;28;20234;-68
2022/09/04 01:35:11;;;;;;;9.25;7.13;;;;;;;;;;5043087;28;20223;-69
2022/09/04 01:37:51;;;;;;;8.30;6.60;;;;;;;;;;5039038;28;20686;-68
2022/09/04 01:40:26;;;;;;;9.57;7.40;;;;;;;;;;5041109;28;20211;-68
2022/09/04 01:42:53;;;;;;;10.23;7.22;;;;;;;;;;5042160;28;20288;-68
2022/09/04 01:45:24;;;;;;;9.02;6.65;;;;;;;;;;5034056;28;20670;-68
2022/09/04 01:47:50;;;;;;;9.30;7.35;;;;;;;;;;5035040;28;20792;-68
2022/09/04 01:50:18;;;;;;;10.30;7.72;;;;;;;;;;5034071;28;20223;-68
2022/09/04 01:52:46;;;;;;;8.80;6.30;;;;;;;;;;5036378;28;20653;-68
2022/09/04 01:55:22;;;;;;;8.73;6.85;;;;;;;;;;5040290;28;20554;-68
2022/09/04 01:57:50;;;;;;;9.40;6.93;;;;;;;;;;5043432;28;20799;-68
2022/09/04 02:00:16;;;;;;;8.55;6.32;;;;;;;;;;5042739;28;20219;-68
2022/09/04 02:02:53;;;;;;;7.88;5.72;;;;;;;;;;5042057;28;20218;-69
2022/09/04 02:05:24;;;;;;;9.43;6.40;;;;;;;;;;5041084;28;20239;-68
2022/09/04 02:07:54;;;;;;;8.32;6.63;;;;;;;;;;5038135;28;20222;-69
2022/09/04 02:10:36;;;;;;;7.60;6.05;;;;;;;;;;5033603;28;20230;-69
2022/09/04 02:13:08;;;;;;;7.68;6.00;;;;;;;;;;5031377;28;20214;-68
2022/09/04 02:15:36;;;;;;;8.60;6.00;;;;;;;;;;5026654;28;20215;-68
2022/09/04 02:18:10;;;;;;;8.27;5.45;;;;;;;;;;5026580;28;20242;-68
2022/09/04 02:20:35;;;;;;;8.60;5.75;;;;;;;;;;5043087;28;20747;-68
2022/09/04 02:23:04;;;;;;;8.27;6.13;;;;;;;;;;5042028;28;20215;-66
2022/09/04 02:25:31;;;;;;;9.20;6.80;;;;;;;;;;5042620;28;20214;-68
2022/09/04 02:27:58;;;;;;;8.70;6.22;;;;;;;;;;5041630;28;20215;-68
2022/09/04 02:30:23;;;;;;;9.45;6.90;;;;;;;;;;5038134;28;20316;-68
2022/09/04 02:32:48;;;;;;;7.47;6.00;;;;;;;;;;5035235;28;20212;-68
2022/09/04 02:35:16;;;;;;;10.13;6.82;;;;;;;;;;5035061;28;20250;-68
2022/09/04 02:37:44;;;;;;;8.45;6.30;;;;;;;;;;5033735;28;20310;-68
2022/09/04 02:40:17;;;;;;;7.85;6.18;;;;;;;;;;5041912;28;20673;-68
2022/09/04 02:42:43;;;;;;;8.52;6.22;;;;;;;;;;5041207;28;20215;-69
2022/09/04 02:45:10;;;;;;;8.02;6.18;;;;;;;;;;5027547;28;20211;-68
2022/09/04 02:47:36;;;;;;;7.95;6.28;;;;;;;;;;5022965;28;20721;-69
2022/09/04 02:50:08;;;;;;;8.13;6.70;;;;;;;;;;5040910;28;20223;-68
2022/09/04 02:52:35;;;;;;;11.20;7.25;;;;;;;;;;5035424;28;20219;-69
2022/09/04 02:55:00;;;;;;;10.45;7.07;;;;;;;;;;5015598;28;20220;-69
2022/09/04 02:57:42;;;;;;;8.65;7.20;;;;;;;;;;5033546;28;20306;-69
2022/09/04 03:00:16;;;;;;;9.32;7.15;;;;;;;;;;5036002;28;20211;-68
2022/09/04 03:02:47;;;;;;;7.22;5.72;;;;;;;;;;5042080;28;20211;-69
2022/09/04 03:05:17;;;;;;;8.27;6.60;;;;;;;;;;5041317;28;20215;-68
2022/09/04 03:07:48;;;;;;;9.18;7.40;;;;;;;;;;5041546;28;20211;-69
2022/09/04 03:10:21;;;;;;;9.23;7.30;;;;;;;;;;5040391;28;20313;-69
2022/09/04 03:12:50;;;;;;;10.77;7.50;;;;;;;;;;5040695;28;20751;-69
2022/09/04 03:15:22;;;;;;;9.68;7.28;;;;;;;;;;5028083;28;20211;-69
2022/09/04 03:17:52;;;;;;;9.95;6.75;;;;;;;;;;5020149;28;20224;-69
2022/09/04 03:20:20;;;;;;;8.90;6.93;;;;;;;;;;5033137;28;20269;-69
2022/09/04 03:22:48;;;;;;;9.98;8.55;;;;;;;;;;5036449;28;20320;-69
2022/09/04 03:25:27;;;;;;;10.80;8.80;;;;;;;;;;5040741;28;20306;-69
2022/09/04 03:27:52;;;;;;;10.05;8.27;;;;;;;;;;5040135;28;20694;-69
2022/09/04 03:30:18;;;;;;;9.88;8.20;;;;;;;;;;5040895;28;20235;-69
2022/09/04 03:32:45;;;;;;;10.30;7.88;;;;;;;;;;5041131;28;20237;-69
2022/09/04 03:35:31;;;;;;;9.32;7.53;;;;;;;;;;5039636;28;20313;-66
2022/09/04 03:37:59;;;;;;;10.45;8.23;;;;;;;;;;5024260;28;20262;-66
2022/09/04 03:40:29;;;;;;;9.00;7.03;;;;;;;;;;5032868;28;20797;-66
2022/09/04 03:43:05;;;;;;;9.23;7.15;;;;;;;;;;5032332;28;20211;-66
2022/09/04 03:45:38;;;;;;;9.32;7.88;;;;;;;;;;5019313;28;20217;-66
2022/09/04 03:48:04;;;;;;;10.23;8.43;;;;;;;;;;5038307;28;20242;-66
2022/09/04 03:50:47;;;;;;;8.73;7.47;;;;;;;;;;5040911;28;20302;-66
2022/09/04 03:53:17;;;;;;;11.88;8.07;;;;;;;;;;5021279;28;20750;-66
2022/09/04 03:56:01;;;;;;;10.30;8.20;;;;;;;;;;5040889;28;20219;-66
2022/09/04 03:58:29;;;;;;;11.80;8.38;;;;;;;;;;5040602;28;20549;-67
2022/09/04 04:00:58;;;;;;;11.35;8.25;;;;;;;;;;5036652;28;20219;-66
2022/09/04 04:03:30;;;;;;;9.90;8.30;;;;;;;;;;5031845;28;20684;-66
2022/09/04 04:05:55;;;;;;;11.48;8.63;;;;;;;;;;5033537;28;20223;-67
2022/09/04 04:08:20;;;;;;;10.73;8.65;;;;;;;;;;5036358;28;20789;-66
2022/09/04 04:10:52;;;;;;;10.50;8.90;;;;;;;;;;5040783;28;20234;-67
2022/09/04 04:13:32;;;;;;;9.65;8.60;;;;;;;;;;5035409;28;20773;-66
2022/09/04 04:16:11;;;;;;;12.45;9.57;;;;;;;;;;5021721;28;20289;-67
2022/09/04 04:18:48;;;;;;;11.35;9.90;;;;;;;;;;5020760;28;20212;-66
2022/09/04 04:21:19;;;;;;;14.13;11.20;;;;;;;;;;5038577;28;20261;-66
2022/09/04 04:23:56;;;;;;;11.90;9.82;;;;;;;;;;5033826;28;20745;-67
2022/09/04 04:26:28;;;;;;;16.33;10.80;;;;;;;;;;5032669;28;20498;-66
2022/09/04 04:29:02;;;;;;;11.48;10.30;;;;;;;;;;5032475;28;20223;-66
2022/09/04 04:31:35;;;;;;;12.85;9.82;;;;;;;;;;5037821;28;20537;-66
2022/09/04 04:34:04;;;;;;;12.02;10.73;;;;;;;;;;5038676;28;20313;-65
2022/09/04 04:36:39;;;;;;;10.95;9.75;;;;;;;;;;5036781;28;20238;-66
2022/09/04 04:39:13;;;;;;;11.30;9.75;;;;;;;;;;5040102;28;20256;-66
2022/09/04 04:45:48;;;;;;;11.25;10.13;;;;;;;;;;5032444;28;20214;-66
2022/09/04 04:47:21;;;;;;;13.00;10.18;;;;;;;;;;5031060;28;20624;-66
2022/09/04 04:49:59;;;;;;;13.50;11.48;;;;;;;;;;5031957;28;20229;-66
2022/09/04 04:52:39;;;;;;;13.50;10.23;;;;;;;;;;5029264;28;20207;-66
2022/09/04 04:55:05;;;;;;;12.32;10.45;;;;;;;;;;5038489;28;20214;-66
2022/09/04 04:57:34;;;;;;;11.98;10.73;;;;;;;;;;5041224;28;20345;-66
2022/09/04 05:00:07;;;;;;;12.23;10.95;;;;;;;;;;5042823;28;20214;-66
2022/09/04 05:02:50;;;;;;;12.88;11.18;;;;;;;;;;5042705;28;20210;-67
2022/09/04 05:05:22;;;;;;;12.95;10.90;;;;;;;;;;5043247;28;20207;-66
2022/09/04 05:07:51;;;;;;;12.70;11.35;;;;;;;;;;5041387;28;20298;-66
2022/09/04 05:10:24;;;;;;;13.15;11.68;;;;;;;;;;5035317;28;20265;-66
2022/09/04 05:12:54;;;;;;;13.32;11.43;;;;;;;;;;5034177;28;20751;-66
2022/09/04 05:15:20;;;;;;;11.98;10.77;;;;;;;;;;5026081;28;20227;-66
2022/09/04 05:17:49;;;;;;;12.95;10.82;;;;;;;;;;5028633;28;20767;-66
2022/09/04 05:20:25;;;;;;;12.57;11.27;;;;;;;;;;5042192;28;20218;-66
2022/09/04 05:23:04;;;;;;;14.25;11.75;;;;;;;;;;5043753;28;20748;-66
2022/09/04 05:25:37;;;;;;;12.98;11.15;;;;;;;;;;5041415;28;20211;-66
2022/09/04 05:28:03;;;;;;;13.63;11.05;;;;;;;;;;5043111;28;20298;-66
2022/09/04 05:30:39;;;;;;;13.77;11.05;;;;;;;;;;5042056;28;20372;-66
2022/09/04 05:33:23;;;;;;;14.20;11.73;;;;;;;;;;5035735;28;20389;-66
2022/09/04 05:35:52;;;;;;;13.00;10.60;;;;;;;;;;5035839;28;20218;-67
2022/09/04 05:38:21;;;;;;;12.25;10.40;;;;;;;;;;5033416;28;20216;-66
2022/09/04 05:40:52;;;;;;;14.00;11.02;;;;;;;;;;5029001;28;20222;-66
2022/09/04 05:43:23;;;;;;;12.05;10.52;;;;;;;;;;5023575;28;20726;-66
2022/09/04 05:46:02;;;;;;;12.55;10.90;;;;;;;;;;5040475;28;20211;-67
2022/09/04 05:48:30;;;;;;;13.82;11.88;;;;;;;;;;5043131;28;20693;-66
2022/09/04 05:51:00;;;;;;;14.48;11.82;;;;;;;;;;5041986;28;20227;-67
2022/09/04 05:53:32;;;;;;;12.73;11.35;;;;;;;;;;5020358;28;20591;-67
2022/09/04 05:56:08;;;;;;;13.88;12.43;;;;;;;;;;5016711;28;20782;-67
2022/09/04 05:58:46;;;;;;;14.13;12.45;;;;;;;;;;5016117;28;20433;-67
2022/09/04 06:01:13;;;;;;;14.55;13.15;;;;;;;;;;5018502;28;20236;-65
2022/09/04 06:03:48;;;;;;;14.43;12.63;;;;;;;;;;5022823;28;20550;-65
2022/09/04 06:06:18;;;;;;;14.77;12.80;;;;;;;;;;5021901;28;20207;-65
2022/09/04 06:08:47;;;;;;;13.20;11.93;;;;;;;;;;5020970;28;20244;-67
2022/09/04 06:11:22;;;;;;;12.35;11.15;;;;;;;;;;5020506;28;20224;-65
2022/09/04 06:13:58;;;;;;;13.93;12.45;;;;;;;;;;5023855;28;20221;-65
2022/09/04 06:16:43;;;;;;;16.33;12.82;;;;;;;;;;5020423;28;20256;-65
2022/09/04 06:19:11;;;;;;;14.93;13.32;;;;;;;;;;5014861;28;20424;-65
2022/09/04 06:21:42;;;;;;;13.35;12.00;;;;;;;;;;5015837;28;20965;-65
2022/09/04 06:24:16;;;;;;;13.38;11.98;;;;;;;;;;5020726;28;20212;-65
2022/09/04 06:27:01;;;;;;;13.23;11.80;;;;;;;;;;5019426;28;20217;-64
2022/09/04 06:29:34;;;;;;;15.48;13.10;;;;;;;;;;5022781;28;20222;-65
2022/09/04 06:32:06;;;;;;;14.18;12.65;;;;;;;;;;5023727;28;20721;-65
2022/09/04 06:34:38;;;;;;;14.10;11.50;;;;;;;;;;5022924;28;20776;-64
2022/09/04 06:37:06;;;;;;;12.68;11.23;;;;;;;;;;5022573;28;20214;-67
2022/09/04 06:39:37;;;;;;;14.82;12.45;;;;;;;;;;5018164;28;20417;-64
2022/09/04 06:42:13;;;;;;;13.68;12.07;;;;;;;;;;5015800;28;20215;-65
2022/09/04 06:44:43;;;;;;;13.18;11.43;;;;;;;;;;5049365;28;20721;-64
2022/09/04 06:47:09;;;;;;;13.45;11.65;;;;;;;;;;5050317;28;20272;-64
2022/09/04 06:49:39;;;;;;;13.85;11.70;;;;;;;;;;5051178;28;20321;-65
2022/09/04 06:52:18;;;;;;;12.63;11.30;;;;;;;;;;5060535;28;20219;-65
2022/09/04 06:54:46;;;;;;;13.02;11.40;;;;;;;;;;5071905;28;20214;-64
2022/09/04 06:57:15;;;;;;;12.63;11.30;;;;;;;;;;5070936;28;20210;-64
2022/09/04 06:59:44;;;;;;;12.48;11.18;;;;;;;;;;5058933;28;20219;-65
2022/09/04 07:02:18;;;;;;;15.02;12.65;;;;;;;;;;5050770;28;20200;-63
2022/09/04 07:04:47;;;;;;;13.85;12.15;;;;;;;;;;5049291;28;20214;-65
2022/09/04 07:07:16;;;;;;;14.93;12.65;;;;;;;;;;5048361;28;20211;-65
2022/09/04 07:09:43;;;;;;;13.23;11.73;;;;;;;;;;5050222;28;20642;-67
2022/09/04 07:12:14;;;;;;;14.93;11.60;;;;;;;;;;5049500;28;20393;-69
2022/09/04 07:14:48;;;;;;;14.38;11.95;;;;;;;;;;5051195;28;20215;-65
2022/09/04 07:17:23;;;;;;;13.25;11.60;;;;;;;;;;5049368;28;20355;-67
2022/09/04 07:19:56;;;;;;;12.57;11.27;;;;;;;;;;5048853;28;20206;-66
2022/09/04 07:22:28;;;;;;;12.98;11.32;;;;;;;;;;5049453;28;20207;-65
2022/09/04 07:25:06;;;;;;;14.80;12.15;;;;;;;;;;5049406;28;20678;-65
2022/09/04 07:27:35;;;;;;;14.30;12.48;;;;;;;;;;5049926;28;20222;-65
2022/09/04 07:30:02;;;;;;;14.32;12.00;;;;;;;;;;5049498;28;20237;-64
2022/09/04 07:32:29;;;;;;;13.43;11.75;;;;;;;;;;5049278;28;20203;-65
2022/09/04 07:34:56;;;;;;;12.88;11.35;;;;;;;;;;5037384;28;20215;-65
2022/09/04 07:37:26;;;;;;;13.90;11.43;;;;;;;;;;5041807;28;20215;-65
2022/09/04 07:39:55;;;;;;;14.98;12.15;;;;;;;;;;5039415;28;20753;-66
2022/09/04 07:42:39;;;;;;;13.13;11.73;;;;;;;;;;5043295;28;20219;-65
2022/09/04 07:45:05;;;;;;;15.05;10.68;;;;;;;;;;5046822;28;20218;-65
2022/09/04 07:47:34;;;;;;;13.68;11.63;;;;;;;;;;5054729;28;20226;-65
2022/09/04 07:50:02;;;;;;;14.32;11.65;;;;;;;;;;5060295;28;20227;-65
2022/09/04 07:52:27;;;;;;;15.95;10.60;;;;;;;;;;5054813;28;20494;-64
2022/09/04 07:54:57;;;;;;;13.45;11.65;;;;;;;;;;5053490;28;20211;-66
2022/09/04 07:57:33;;;;;;;12.60;11.30;;;;;;;;;;5042984;28;20203;-64
2022/09/04 08:00:03;;;;;;;14.13;11.73;;;;;;;;;;5040558;28;20278;-66
2022/09/04 08:02:46;;;;;;;12.50;10.90;;;;;;;;;;5041788;28;20227;-66
2022/09/04 08:05:15;;;;;;;12.98;11.27;;;;;;;;;;5042423;28;20242;-66
2022/09/04 08:07:46;;;;;;;12.38;10.70;;;;;;;;;;5043097;28;20264;-65
2022/09/04 08:10:18;;;;;;;11.77;10.57;;;;;;;;;;5041922;28;20697;-66
2022/09/04 08:12:44;;;;;;;10.60;9.50;;;;;;;;;;5043125;28;20752;-67
2022/09/04 08:15:14;;;;;;;12.88;10.35;;;;;;;;;;5062488;28;20243;-65
2022/09/04 08:17:45;;;;;;;12.38;9.63;;;;;;;;;;5049155;28;20666;-66
2022/09/04 08:20:12;;;;;;;11.55;10.35;;;;;;;;;;5040805;28;20217;-65
2022/09/04 08:22:42;;;;;;;13.82;10.85;;;;;;;;;;5041683;28;20215;-66
2022/09/04 08:25:12;;;;;;;10.65;9.55;;;;;;;;;;5042434;28;20226;-66
2022/09/04 08:27:43;;;;;;;12.00;10.15;;;;;;;;;;5040472;28;20221;-66
2022/09/04 08:30:09;;;;;;;10.80;9.52;;;;;;;;;;5040571;28;20230;-65
2022/09/04 08:32:46;;;;;;;11.60;9.75;;;;;;;;;;5042719;28;20709;-66
2022/09/04 08:35:14;;;;;;;11.43;9.45;;;;;;;;;;5040026;28;20306;-65
2022/09/04 08:37:47;;;;;;;12.07;8.63;;;;;;;;;;5041988;28;20282;-66
2022/09/04 08:40:31;;;;;;;13.65;9.43;;;;;;;;;;5042034;28;20487;-65
2022/09/04 08:43:15;;;;;;;12.70;8.68;;;;;;;;;;5041968;28;20219;-67
2022/09/04 08:45:47;;;;;;;10.70;8.20;;;;;;;;;;5042021;28;20223;-66
2022/09/04 08:48:29;;;;;;;10.90;8.27;;;;;;;;;;5042439;28;20230;-66
2022/09/04 08:51:06;;;;;;;11.90;9.35;;;;;;;;;;5040299;28;20243;-66
2022/09/04 08:53:36;;;;;;;14.05;9.20;;;;;;;;;;5061545;28;20220;-65
2022/09/04 08:56:05;;;;;;;12.90;7.97;;;;;;;;;;5054758;28;20260;-66
2022/09/04 08:58:37;;;;;;;10.15;7.75;;;;;;;;;;5061678;28;20683;-66
2022/09/04 09:01:06;;;;;;;11.85;9.02;;;;;;;;;;5060286;28;20590;-66
2022/09/04 09:03:36;;;;;;;10.52;8.05;;;;;;;;;;5061261;28;20212;-66
2022/09/04 09:06:05;;;;;;;10.80;8.55;;;;;;;;;;5061719;28;20522;-65
2022/09/04 09:08:35;;;;;;;12.60;8.52;;;;;;;;;;5060638;28;20211;-66
2022/09/04 09:11:04;;;;;;;9.23;8.10;;;;;;;;;;5061151;28;20237;-65
2022/09/04 09:13:35;;;;;;;12.07;8.77;;;;;;;;;;5055306;28;20211;-66
2022/09/04 09:16:17;;;;;;;10.48;7.25;;;;;;;;;;5040899;28;20219;-65
2022/09/04 09:18:46;;;;;;;10.57;7.40;;;;;;;;;;5022071;28;20529;-66
2022/09/04 09:21:15;;;;;;;11.23;8.93;;;;;;;;;;5022357;28;20219;-66
2022/09/04 09:24:00;;;;;;;9.07;7.50;;;;;;;;;;5021904;28;20215;-66
2022/09/04 09:26:28;;;;;;;10.02;7.57;;;;;;;;;;5021608;28;20306;-66
2022/09/04 09:28:54;;;;;;;8.45;7.32;;;;;;;;;;5021120;28;20588;-67
2022/09/04 09:31:20;;;;;;;9.30;7.03;;;;;;;;;;5021514;28;20240;-65
2022/09/04 09:33:51;;;;;;;9.38;7.13;;;;;;;;;;5018830;28;20687;-67
2022/09/04 09:36:21;;;;;;;8.10;6.85;;;;;;;;;;5013541;28;20207;-66
2022/09/04 09:38:52;;;;;;;10.07;7.30;;;;;;;;;;5028532;28;20215;-66
2022/09/04 09:41:36;;;;;;;9.82;7.38;;;;;;;;;;5034687;28;20266;-65
2022/09/04 09:44:11;;;;;;;8.90;7.10;;;;;;;;;;5045801;28;20219;-65
2022/09/04 09:46:54;;;;;;;10.90;7.15;;;;;;;;;;5045150;28;20705;-65
2022/09/04 09:49:29;;;;;;;10.45;6.25;;;;;;;;;;5022219;28;20253;-65
2022/09/04 09:52:01;;;;;;;10.38;6.63;;;;;;;;;;5031470;28;20341;-66
2022/09/04 09:54:30;;;;;;;8.20;5.47;;;;;;;;;;5031817;28;20916;-65
2022/09/04 09:56:56;;;;;;;7.90;5.40;;;;;;;;;;5023721;28;20203;-69
2022/09/04 09:59:29;;;;;;;9.38;5.85;;;;;;;;;;4997333;28;20292;-66
2022/09/04 10:02:13;;;;;;;7.90;6.18;;;;;;;;;;5032873;28;20488;-65
2022/09/04 10:04:39;;;;;;;7.65;5.40;;;;;;;;;;5020719;28;20234;-63
2022/09/04 10:07:13;;;;;;;7.57;4.50;;;;;;;;;;5019210;28;20212;-63
2022/09/04 10:09:57;;;;;;;9.38;5.40;;;;;;;;;;5022254;28;20310;-63
2022/09/04 10:12:31;;;;;;;7.28;4.38;;;;;;;;;;5073326;28;20213;-65
2022/09/04 10:15:05;;;;;;;7.72;5.28;;;;;;;;;;5077908;28;20501;-63
2022/09/04 10:17:49;;;;;;;7.22;5.28;;;;;;;;;;5078228;28;20242;-63
2022/09/04 10:20:23;;;;;;;8.10;4.68;;;;;;;;;;5056184;28;20232;-63
2022/09/04 10:22:48;;;;;;;5.50;4.28;;;;;;;;;;5075997;28;20408;-63
2022/09/04 10:25:18;;;;;;;6.88;4.15;;;;;;;;;;5085416;28;20591;-63
2022/09/04 10:27:45;;;;;;;7.63;4.43;;;;;;;;;;5092118;28;20299;-63
2022/09/04 10:30:18;;;;;;;7.00;5.00;;;;;;;;;;5097969;28;20221;-63
2022/09/04 10:32:50;;;;;;;7.47;4.20;;;;;;;;;;5060763;28;20266;-64
2022/09/04 10:35:23;;;;;;;6.95;4.38;;;;;;;;;;5097228;28;20209;-63
2022/09/04 10:38:07;;;;;;;6.22;3.78;;;;;;;;;;5085962;28;20256;-63
2022/09/04 10:40:37;;;;;;;9.35;4.43;;;;;;;;;;5095497;28;20323;-63
2022/09/04 10:43:18;;;;;;;6.70;3.58;;;;;;;;;;5041479;28;20276;-63
2022/09/04 10:45:45;;;;;;;5.90;3.90;;;;;;;;;;5036104;28;20234;-63
2022/09/04 10:48:17;;;;;;;6.38;3.70;;;;;;;;;;5027874;28;20705;-63
2022/09/04 10:51:00;;;;;;;6.15;4.00;;;;;;;;;;5017262;28;20259;-64
2022/09/04 10:53:50;;;;;;;5.18;3.42;;;;;;;;;;5023932;28;20268;-63
2022/09/04 10:56:25;;;;;;;6.55;3.75;;;;;;;;;;5022210;28;20670;-63
2022/09/04 10:59:02;;;;;;;6.82;3.47;;;;;;;;;;5041937;28;20592;-63
2022/09/04 11:01:42;;;;;;;4.55;3.42;;;;;;;;;;5042238;28;20430;-64
2022/09/04 11:04:12;;;;;;;5.28;3.70;;;;;;;;;;5039766;28;20219;-63
2022/09/04 11:06:45;;;;;;;6.97;3.40;;;;;;;;;;5040755;28;20223;-64
2022/09/04 11:09:21;;;;;;;4.28;2.90;;;;;;;;;;5035099;28;20226;-62
2022/09/04 11:12:06;;;;;;;7.25;3.38;;;;;;;;;;5036197;28;20376;-64
2022/09/04 11:14:42;;;;;;;3.97;2.95;;;;;;;;;;5023888;28;20222;-64
2022/09/04 11:17:19;;;;;;;6.43;2.83;;;;;;;;;;5031892;28;20212;-64
2022/09/04 11:19:52;;;;;;;7.97;3.30;;;;;;;;;;5027152;28;20221;-64
2022/09/04 11:22:37;;;;;;;4.78;2.92;;;;;;;;;;5024638;28;20231;-63
2022/09/04 11:25:12;;;;;;;5.82;3.38;;;;;;;;;;5039272;28;20218;-65
2022/09/04 11:27:46;;;;;;;5.55;2.35;;;;;;;;;;5040818;28;20242;-64
2022/09/04 11:30:15;;;;;;;6.60;2.60;;;;;;;;;;5036984;28;20234;-65
2022/09/04 11:32:47;;;;;;;7.40;2.33;;;;;;;;;;5033086;28;20713;-65
2022/09/04 11:35:25;;;;;;;4.07;1.92;;;;;;;;;;5033774;28;20264;-65
2022/09/04 11:37:57;;;;;;;7.95;2.50;;;;;;;;;;5025330;28;20239;-65
2022/09/04 11:40:35;;;;;;;4.15;2.28;;;;;;;;;;5021905;28;20243;-64
2022/09/04 11:43:02;;;;;;;5.07;2.38;;;;;;;;;;5041732;28;20220;-65
2022/09/04 11:45:47;;;;;;;7.70;2.30;;;;;;;;;;5039060;28;20713;-65
2022/09/04 11:48:13;;;;;;;4.75;2.50;;;;;;;;;;5039600;28;20262;-65
2022/09/04 11:50:41;;;;;;;4.35;2.60;;;;;;;;;;5022089;28;20315;-64
2022/09/04 11:53:29;;;;;;;4.78;2.65;;;;;;;;;;5015898;28;20513;-64
2022/09/04 11:56:02;;;;;;;5.93;2.50;;;;;;;;;;5016514;28;20216;-64
2022/09/04 11:58:29;;;;;;;3.67;2.03;;;;;;;;;;5033826;28;20326;-64
2022/09/04 12:01:08;;;;;;;3.55;2.30;;;;;;;;;;5030732;28;20657;-65
2022/09/04 12:03:37;;;;;;;4.40;2.17;;;;;;;;;;5039065;28;20575;-65
2022/09/04 12:06:06;;;;;;;5.45;1.90;;;;;;;;;;5038213;28;20276;-65
2022/09/04 12:08:36;;;;;;;2.85;1.67;;;;;;;;;;5039305;28;20214;-65
2022/09/04 12:11:02;;;;;;;7.47;1.92;;;;;;;;;;5040194;28;20300;-65
2022/09/04 12:13:29;;;;;;;3.70;1.60;;;;;;;;;;5021239;28;20208;-65
2022/09/04 12:16:14;;;;;;;3.47;1.70;;;;;;;;;;5027545;28;20665;-65
2022/09/04 12:18:50;;;;;;;4.20;1.77;;;;;;;;;;5015286;28;20212;-65
2022/09/04 12:21:33;;;;;;;4.15;1.98;;;;;;;;;;5034072;28;20252;-65
2022/09/04 12:24:12;;;;;;;4.35;1.83;;;;;;;;;;5039940;28;20215;-65
2022/09/04 12:26:49;;;;;;;5.47;1.70;;;;;;;;;;5035155;28;20742;-65
2022/09/04 12:29:19;;;;;;;3.75;1.90;;;;;;;;;;5038882;28;20215;-65
2022/09/04 12:31:58;;;;;;;4.13;1.85;;;;;;;;;;5025268;28;20298;-65
2022/09/04 12:34:42;;;;;;;4.22;1.92;;;;;;;;;;5037910;28;20207;-65
2022/09/04 12:37:13;;;;;;;3.25;2.15;;;;;;;;;;5031576;28;20557;-65
2022/09/04 12:39:49;;;;;;;5.43;2.00;;;;;;;;;;5033689;28;20222;-65
2022/09/04 12:42:18;;;;;;;4.43;2.15;;;;;;;;;;5020008;28;20215;-65
2022/09/04 12:44:43;;;;;;;6.88;2.00;;;;;;;;;;5034965;28;20561;-65
2022/09/04 12:47:12;;;;;;;4.60;2.13;;;;;;;;;;5040247;28;20233;-65
2022/09/04 12:49:38;;;;;;;4.00;2.00;;;;;;;;;;5037334;28;20229;-65
2022/09/04 12:52:07;;;;;;;4.20;2.00;;;;;;;;;;5021610;28;20212;-66
2022/09/04 12:54:37;;;;;;;4.82;2.03;;;;;;;;;;5032445;28;20265;-66
2022/09/04 12:57:10;;;;;;;3.40;1.92;;;;;;;;;;5037992;28;20308;-66
2022/09/04 12:59:40;;;;;;;5.85;1.88;;;;;;;;;;5039232;28;20304;-66
2022/09/04 13:02:06;;;;;;;3.38;1.95;;;;;;;;;;5032179;28;20391;-66
2022/09/04 13:04:37;;;;;;;2.60;1.85;;;;;;;;;;5033765;28;20372;-66
2022/09/04 13:07:16;;;;;;;7.28;2.17;;;;;;;;;;5035091;28;20215;-66
2022/09/04 13:09:48;;;;;;;3.03;1.95;;;;;;;;;;5038322;28;20213;-66
2022/09/04 13:12:14;;;;;;;3.75;2.17;;;;;;;;;;5040152;28;20229;-65
2022/09/04 13:14:45;;;;;;;6.22;2.20;;;;;;;;;;5040968;28;20325;-66
2022/09/04 13:17:16;;;;;;;4.03;2.33;;;;;;;;;;5029342;28;20243;-66
2022/09/04 13:19:59;;;;;;;5.38;2.00;;;;;;;;;;5034116;28;20319;-66
2022/09/04 13:22:34;;;;;;;4.15;1.92;;;;;;;;;;5042600;28;20278;-67
2022/09/04 13:25:20;;;;;;;4.70;2.03;;;;;;;;;;5035398;28;20392;-67
2022/09/04 13:27:47;;;;;;;5.35;2.20;;;;;;;;;;5037412;28;20423;-66
2022/09/04 13:30:17;;;;;;;3.72;2.05;;;;;;;;;;5038988;28;20258;-66
2022/09/04 13:33:01;;;;;;;3.42;1.95;;;;;;;;;;5025771;28;20289;-69
2022/09/04 13:35:32;;;;;;;4.85;2.22;;;;;;;;;;5023322;28;20203;-69
2022/09/04 13:38:10;;;;;;;3.72;2.00;;;;;;;;;;5023119;28;20207;-69
2022/09/04 13:40:39;;;;;;;3.95;2.00;;;;;;;;;;5023051;28;20219;-68
2022/09/04 13:43:23;;;;;;;3.95;1.92;;;;;;;;;;5022785;28;20210;-68
2022/09/04 13:45:50;;;;;;;4.63;2.33;;;;;;;;;;5019768;28;20283;-68
2022/09/04 13:48:31;;;;;;;4.43;2.10;;;;;;;;;;5015351;28;20207;-69
2022/09/04 13:50:57;;;;;;;4.80;2.40;;;;;;;;;;5018449;28;20219;-69
2022/09/04 13:53:28;;;;;;;6.30;2.60;;;;;;;;;;5019188;28;20212;-69
2022/09/04 13:55:56;;;;;;;4.18;2.25;;;;;;;;;;5024222;28;20303;-69
2022/09/04 13:58:23;;;;;;;6.28;2.63;;;;;;;;;;5022523;28;20223;-68
2022/09/04 14:00:48;;;;;;;5.05;2.30;;;;;;;;;;5022690;28;20273;-68
2022/09/04 14:03:34;;;;;;;4.57;2.10;;;;;;;;;;5022161;28;20219;-68
2022/09/04 14:05:59;;;;;;;4.35;2.45;;;;;;;;;;5024483;28;20265;-70
2022/09/04 14:08:26;;;;;;;4.82;2.15;;;;;;;;;;5019385;28;20215;-68
2022/09/04 14:11:03;;;;;;;5.07;2.50;;;;;;;;;;5016946;28;20231;-67
2022/09/04 14:13:35;;;;;;;4.10;1.90;;;;;;;;;;5015528;28;20770;-68
2022/09/04 14:16:02;;;;;;;5.65;1.90;;;;;;;;;;5020125;28;20219;-68
2022/09/04 14:18:33;;;;;;;6.28;2.38;;;;;;;;;;5024188;28;20533;-68
2022/09/04 14:20:59;;;;;;;3.55;2.40;;;;;;;;;;5023189;28;20732;-69
2022/09/04 14:23:28;;;;;;;4.00;2.17;;;;;;;;;;5022123;28;20302;-68
2022/09/04 14:25:55;;;;;;;4.72;2.17;;;;;;;;;;5022176;28;20847;-68
2022/09/04 14:28:28;;;;;;;4.70;2.25;;;;;;;;;;5022638;28;20245;-65
2022/09/04 14:31:06;;;;;;;5.30;2.13;;;;;;;;;;5019448;28;20228;-68
2022/09/04 14:33:34;;;;;;;3.72;2.00;;;;;;;;;;5016070;28;20212;-70
2022/09/04 14:36:01;;;;;;;5.83;2.03;;;;;;;;;;5016665;28;20421;-69
2022/09/04 14:38:34;;;;;;;3.20;1.90;;;;;;;;;;5020511;28;20220;-74
2022/09/04 14:41:20;;;;;;;4.10;2.00;;;;;;;;;;5019922;28;20437;-68
2022/09/04 14:43:58;;;;;;;4.05;1.80;;;;;;;;;;5023384;28;20219;-65
2022/09/04 14:46:27;;;;;;;2.67;1.77;;;;;;;;;;5022292;28;20231;-69
2022/09/04 14:49:00;;;;;;;4.32;1.80;;;;;;;;;;5021362;28;20315;-75
2022/09/04 14:51:25;;;;;;;4.15;2.22;;;;;;;;;;5023434;28;20231;-67
2022/09/04 14:53:51;;;;;;;3.15;1.60;;;;;;;;;;5037376;28;20207;-66
2022/09/04 14:56:22;;;;;;;3.17;2.00;;;;;;;;;;5015466;28;20317;-70
2022/09/04 14:58:49;;;;;;;5.38;1.92;;;;;;;;;;5015705;28;20215;-66
2022/09/04 15:01:22;;;;;;;3.42;1.60;;;;;;;;;;5018054;28;20212;-66
2022/09/04 15:03:52;;;;;;;3.65;1.70;;;;;;;;;;5022270;28;20220;-66
2022/09/04 15:06:20;;;;;;;4.17;1.80;;;;;;;;;;5021327;28;20520;-66